createdAt,value
2019-02-24T00:02:08.702Z,2.99
2019-02-24T00:04:35.614Z,3.02
2019-02-24T00:07:02.570Z,3.05
2019-02-24T00:09:29.495Z,3.09
2019-02-24T00:11:56.458Z,3.08
2019-02-24T00:14:23.354Z,3.26
2019-02-24T00:16:50.299Z,3.17
2019-02-24T00:19:17.209Z,3.08
2019-02-24T00:21:44.163Z,3.18
2019-02-24T00:24:11.067Z,3.12
2019-02-24T00:26:38.053Z,3.03
2019-02-24T00:29:04.963Z,3.08
2019-02-24T00:31:32.178Z,3.08
2019-02-24T00:33:59.127Z,3.11
2019-02-24T00:36:26.035Z,3.00
2019-02-24T00:38:52.971Z,2.95
2019-02-24T00:41:19.922Z,2.83
2019-02-24T00:43:46.887Z,2.74
2019-02-24T00:46:13.812Z,2.68
2019-02-24T00:48:40.779Z,2.64
2019-02-24T00:51:07.672Z,2.56
2019-02-24T00:53:34.642Z,2.54
2019-02-24T00:56:01.546Z,2.45
2019-02-24T00:58:28.511Z,2.45
2019-02-24T01:00:55.440Z,2.42
2019-02-24T01:03:22.376Z,2.30
2019-02-24T01:05:49.282Z,2.17
2019-02-24T01:08:16.264Z,2.10
2019-02-24T01:10:43.173Z,2.11
2019-02-24T01:13:10.108Z,2.13
2019-02-24T01:15:36.994Z,2.12
2019-02-24T01:18:03.923Z,2.12
2019-02-24T01:20:30.820Z,1.94
2019-02-24T01:22:57.753Z,1.89
2019-02-24T01:25:24.642Z,1.93
2019-02-24T01:27:51.605Z,1.97
2019-02-24T01:30:18.531Z,1.91
2019-02-24T01:32:45.469Z,1.90
2019-02-24T01:35:12.396Z,1.88
2019-02-24T01:37:39.324Z,1.86
2019-02-24T01:40:06.619Z,1.79
2019-02-24T01:42:33.658Z,1.78
2019-02-24T01:45:00.605Z,1.83
2019-02-24T01:47:27.503Z,1.78
2019-02-24T01:49:54.423Z,1.83
2019-02-24T01:52:21.303Z,1.77
2019-02-24T01:54:48.215Z,1.74
2019-02-24T01:57:15.200Z,1.67
2019-02-24T01:59:42.159Z,1.69
2019-02-24T02:02:09.081Z,1.70
2019-02-24T02:04:36.005Z,1.51
2019-02-24T02:07:02.913Z,1.44
2019-02-24T02:09:29.832Z,1.49
2019-02-24T02:11:56.732Z,1.66
2019-02-24T02:14:23.638Z,1.59
2019-02-24T02:16:50.548Z,1.51
2019-02-24T02:19:17.472Z,1.43
2019-02-24T02:21:44.346Z,1.35
2019-02-24T02:24:11.273Z,1.37
2019-02-24T02:26:38.230Z,1.40
2019-02-24T02:29:05.279Z,1.40
2019-02-24T02:31:32.170Z,1.34
2019-02-24T02:33:59.138Z,1.32
2019-02-24T02:36:26.063Z,1.33
2019-02-24T02:38:52.933Z,1.34
2019-02-24T02:41:19.843Z,1.33
2019-02-24T02:43:46.754Z,1.36
2019-02-24T02:46:13.642Z,1.35
2019-02-24T02:48:40.621Z,1.24
2019-02-24T02:51:08.286Z,1.21
2019-02-24T02:53:35.230Z,1.10
2019-02-24T02:56:02.159Z,1.09
2019-02-24T02:58:29.038Z,1.12
2019-02-24T03:00:55.979Z,1.05
2019-02-24T03:03:22.928Z,1.19
2019-02-24T03:06:06.824Z,0.95
2019-02-24T03:08:50.358Z,0.77
2019-02-24T03:11:17.278Z,0.84
2019-02-24T03:13:44.215Z,0.94
2019-02-24T03:16:11.348Z,0.87
2019-02-24T03:18:38.266Z,0.81
2019-02-24T03:21:05.208Z,0.83
2019-02-24T03:23:32.607Z,0.77
2019-02-24T03:25:59.597Z,0.77
2019-02-24T03:28:26.543Z,0.84
2019-02-24T03:30:53.469Z,0.92
2019-02-24T03:33:20.369Z,0.77
2019-02-24T03:35:47.294Z,0.68
2019-02-24T03:38:14.177Z,0.68
2019-02-24T03:40:41.172Z,0.69
2019-02-24T03:43:08.237Z,0.74
2019-02-24T03:45:35.170Z,0.69
2019-02-24T03:48:02.104Z,0.68
2019-02-24T03:50:29.000Z,0.68
2019-02-24T03:52:55.883Z,0.69
2019-02-24T03:55:22.999Z,0.72
2019-02-24T03:57:49.914Z,0.69
2019-02-24T04:00:16.811Z,0.71
2019-02-24T04:02:43.752Z,0.58
2019-02-24T04:05:10.632Z,0.58
2019-02-24T04:07:37.567Z,0.68
2019-02-24T04:10:04.812Z,0.68
2019-02-24T04:12:31.752Z,0.62
2019-02-24T04:14:58.626Z,0.63
2019-02-24T04:17:25.539Z,0.59
2019-02-24T04:19:52.418Z,0.59
2019-02-24T04:22:19.326Z,0.61
2019-02-24T04:24:46.206Z,0.57
2019-02-24T04:27:13.171Z,0.55
2019-02-24T04:29:40.076Z,0.63
2019-02-24T04:32:07.346Z,0.55
2019-02-24T04:34:34.270Z,0.59
2019-02-24T04:37:01.210Z,0.45
2019-02-24T04:39:28.085Z,0.50
2019-02-24T04:41:55.059Z,0.48
2019-02-24T04:44:21.948Z,0.57
2019-02-24T04:46:48.896Z,0.57
2019-02-24T04:49:16.176Z,0.56
2019-02-24T04:51:43.118Z,0.60
2019-02-24T04:54:10.025Z,0.40
2019-02-24T04:56:36.942Z,0.35
2019-02-24T04:59:03.818Z,0.41
2019-02-24T05:01:30.738Z,0.22
2019-02-24T05:03:57.629Z,0.30
2019-02-24T05:06:24.531Z,0.25
2019-02-24T05:08:51.469Z,0.29
2019-02-24T05:11:18.351Z,0.31
2019-02-24T05:13:45.311Z,0.27
2019-02-24T05:16:12.204Z,0.23
2019-02-24T05:18:39.111Z,0.23
2019-02-24T05:21:06.026Z,0.25
2019-02-24T05:23:33.325Z,0.27
2019-02-24T05:26:00.265Z,0.17
2019-02-24T05:28:27.226Z,0.14
2019-02-24T05:30:54.142Z,0.23
2019-02-24T05:33:21.073Z,0.06
2019-02-24T05:35:47.976Z,-0.49
2019-02-24T05:38:14.885Z,0.02
2019-02-24T05:40:41.777Z,0.04
2019-02-24T05:43:08.706Z,0.17
2019-02-24T05:45:35.608Z,0.15
2019-02-24T05:48:02.532Z,0.05
2019-02-24T05:50:29.429Z,-0.04
2019-02-24T05:52:56.340Z,-0.06
2019-02-24T05:55:23.240Z,0.12
2019-02-24T05:57:50.166Z,0.11
2019-02-24T06:00:17.073Z,-0.02
2019-02-24T06:02:44.033Z,-0.08
2019-02-24T06:05:11.029Z,-0.12
2019-02-24T06:07:38.122Z,-0.07
2019-02-24T06:10:05.455Z,0.04
2019-02-24T06:12:32.475Z,0.10
2019-02-24T06:14:59.368Z,-0.08
2019-02-24T06:17:26.329Z,-0.14
2019-02-24T06:19:53.260Z,-0.06
2019-02-24T06:22:20.170Z,0.02
2019-02-24T06:24:47.117Z,0.02
2019-02-24T06:27:14.050Z,0.04
2019-02-24T06:29:41.015Z,-0.04
2019-02-24T06:32:07.901Z,0.02
2019-02-24T06:34:34.826Z,0.04
2019-02-24T06:37:01.719Z,0.05
2019-02-24T06:39:28.678Z,0.03
2019-02-24T06:41:55.728Z,0.12
2019-02-24T06:44:22.771Z,-0.11
2019-02-24T06:46:49.832Z,-0.06
2019-02-24T06:49:16.891Z,-0.02
2019-02-24T06:51:43.802Z,0.04
2019-02-24T06:54:10.781Z,0.11
2019-02-24T06:56:37.916Z,0.01
2019-02-24T06:59:06.552Z,0.04
2019-02-24T07:01:33.431Z,0.03
2019-02-24T07:04:00.373Z,0.05
2019-02-24T07:06:27.272Z,0.09
2019-02-24T07:08:54.209Z,0.19
2019-02-24T07:11:21.130Z,0.28
2019-02-24T07:13:48.130Z,0.33
2019-02-24T07:16:15.038Z,0.43
2019-02-24T07:18:41.992Z,0.38
2019-02-24T07:21:09.110Z,0.38
2019-02-24T07:23:36.341Z,0.46
2019-02-24T07:26:03.356Z,0.45
2019-02-24T07:28:30.447Z,0.48
2019-02-24T07:30:57.374Z,0.50
2019-02-24T07:33:24.295Z,0.53
2019-02-24T07:35:51.192Z,0.69
2019-02-24T07:38:18.119Z,0.77
2019-02-24T07:40:44.998Z,0.88
2019-02-24T07:43:11.890Z,1.21
2019-02-24T07:45:38.912Z,1.23
2019-02-24T07:48:05.782Z,1.30
2019-02-24T07:50:32.697Z,1.52
2019-02-24T07:52:59.608Z,1.87
2019-02-24T07:55:26.535Z,2.19
2019-02-24T07:57:53.442Z,2.57
2019-02-24T08:00:20.488Z,2.58
2019-02-24T08:02:47.561Z,2.82
2019-02-24T08:05:14.660Z,2.77
2019-02-24T08:07:41.676Z,2.75
2019-02-24T08:10:08.622Z,2.77
2019-02-24T08:12:35.522Z,2.91
2019-02-24T08:15:02.772Z,2.78
2019-02-24T08:17:29.674Z,2.60
2019-02-24T08:19:56.620Z,2.96
2019-02-24T08:22:23.536Z,3.20
2019-02-24T08:24:50.489Z,3.13
2019-02-24T08:27:17.423Z,3.41
2019-02-24T08:29:44.342Z,3.68
2019-02-24T08:32:11.223Z,3.66
2019-02-24T08:34:38.162Z,3.82
2019-02-24T08:37:05.044Z,3.65
2019-02-24T08:39:31.955Z,3.68
2019-02-24T08:41:58.852Z,3.83
2019-02-24T08:44:25.786Z,3.94
2019-02-24T08:46:52.679Z,3.97
2019-02-24T08:49:19.633Z,4.53
2019-02-24T08:51:46.580Z,4.63
2019-02-24T08:54:13.467Z,4.90
2019-02-24T08:56:40.413Z,4.84
2019-02-24T08:59:07.293Z,4.96
2019-02-24T09:01:35.226Z,5.01
2019-02-24T09:04:02.158Z,4.92
2019-02-24T09:06:29.085Z,5.01
2019-02-24T09:08:56.091Z,5.15
2019-02-24T09:11:23.055Z,5.25
2019-02-24T09:13:50.767Z,5.32
2019-02-24T09:16:17.882Z,5.30
2019-02-24T09:18:44.807Z,5.96
2019-02-24T09:21:11.770Z,6.30
2019-02-24T09:23:38.677Z,6.30
2019-02-24T09:26:05.601Z,6.49
2019-02-24T09:28:32.766Z,6.59
2019-02-24T09:31:01.095Z,6.81
2019-02-24T09:33:28.309Z,6.94
2019-02-24T09:35:55.270Z,7.06
2019-02-24T09:38:22.198Z,7.04
2019-02-24T09:40:49.407Z,6.83
2019-02-24T09:43:16.507Z,6.74
2019-02-24T09:45:43.498Z,6.80
2019-02-24T09:48:10.491Z,6.89
2019-02-24T09:50:37.547Z,7.03
2019-02-24T09:53:04.479Z,7.53
2019-02-24T09:55:31.433Z,7.41
2019-02-24T09:57:58.593Z,7.51
2019-02-24T10:00:25.630Z,7.99
2019-02-24T10:02:52.555Z,8.09
2019-02-24T10:05:19.706Z,7.85
2019-02-24T10:07:46.648Z,7.98
2019-02-24T10:10:13.822Z,8.31
2019-02-24T10:12:40.777Z,8.50
2019-02-24T10:15:07.689Z,8.54
2019-02-24T10:17:34.636Z,8.51
2019-02-24T10:20:01.549Z,8.59
2019-02-24T10:22:28.487Z,8.75
2019-02-24T10:24:58.799Z,8.96
2019-02-24T10:27:25.751Z,9.28
2019-02-24T10:29:52.673Z,9.23
2019-02-24T10:32:19.622Z,9.36
2019-02-24T10:34:46.570Z,9.33
2019-02-24T10:37:13.510Z,9.53
2019-02-24T10:39:40.453Z,9.57
2019-02-24T10:42:07.433Z,9.68
2019-02-24T10:44:34.383Z,9.79
2019-02-24T10:47:02.335Z,9.89
2019-02-24T10:49:29.517Z,9.92
2019-02-24T10:51:56.477Z,10.12
2019-02-24T10:54:23.451Z,10.40
2019-02-24T10:56:50.405Z,10.45
2019-02-24T10:59:17.319Z,10.71
2019-02-24T11:01:44.362Z,10.77
2019-02-24T11:04:11.270Z,10.93
2019-02-24T11:06:38.215Z,11.07
2019-02-24T11:09:05.956Z,11.05
2019-02-24T11:11:32.873Z,11.17
2019-02-24T11:13:59.862Z,11.44
2019-02-24T11:16:26.764Z,11.34
2019-02-24T11:18:53.699Z,11.56
2019-02-24T11:21:20.718Z,11.87
2019-02-24T11:23:48.111Z,11.66
2019-02-24T11:26:15.014Z,11.75
2019-02-24T11:28:41.991Z,12.36
2019-02-24T11:31:09.290Z,12.04
2019-02-24T11:33:36.252Z,12.26
2019-02-24T11:36:03.192Z,12.49
2019-02-24T11:38:30.132Z,12.43
2019-02-24T11:40:57.202Z,12.60
2019-02-24T11:43:26.178Z,12.66
2019-02-24T11:45:53.085Z,12.76
2019-02-24T11:48:20.041Z,12.63
2019-02-24T11:50:46.954Z,12.49
2019-02-24T11:53:13.881Z,12.73
2019-02-24T11:55:40.765Z,13.06
2019-02-24T11:58:07.799Z,12.85
2019-02-24T12:00:34.682Z,12.99
2019-02-24T12:03:01.652Z,13.31
2019-02-24T12:05:28.720Z,13.68
2019-02-24T12:07:55.707Z,13.49
2019-02-24T12:10:22.623Z,13.68
2019-02-24T12:12:49.657Z,13.79
2019-02-24T12:15:16.568Z,14.07
2019-02-24T12:17:43.556Z,14.10
2019-02-24T12:20:10.554Z,14.17
2019-02-24T12:22:37.469Z,14.20
2019-02-24T12:25:04.768Z,14.22
2019-02-24T12:27:31.761Z,14.13
2019-02-24T12:29:58.717Z,14.38
2019-02-24T12:32:25.618Z,14.81
2019-02-24T12:34:52.553Z,14.48
2019-02-24T12:37:19.459Z,14.44
2019-02-24T12:39:46.431Z,14.08
2019-02-24T12:42:13.387Z,14.72
2019-02-24T12:44:40.371Z,15.16
2019-02-24T12:47:07.375Z,14.93
2019-02-24T12:49:34.354Z,14.87
2019-02-24T12:52:01.234Z,15.18
2019-02-24T12:54:28.281Z,15.28
2019-02-24T12:56:55.235Z,15.18
2019-02-24T12:59:22.220Z,15.69
2019-02-24T13:01:49.119Z,15.55
2019-02-24T13:04:16.119Z,15.64
2019-02-24T13:06:43.037Z,15.98
2019-02-24T13:09:09.995Z,15.14
2019-02-24T13:11:37.032Z,15.52
2019-02-24T13:14:03.989Z,15.81
2019-02-24T13:16:30.919Z,15.48
2019-02-24T13:18:57.975Z,15.35
2019-02-24T13:21:24.889Z,15.16
2019-02-24T13:23:52.860Z,15.28
2019-02-24T13:26:19.855Z,15.05
2019-02-24T13:28:50.486Z,14.96
2019-02-24T13:31:15.608Z,14.92
2019-02-24T13:33:42.578Z,15.35
2019-02-24T13:36:09.529Z,15.36
2019-02-24T13:38:36.433Z,15.62
2019-02-24T13:41:03.406Z,15.27
2019-02-24T13:43:30.317Z,15.25
2019-02-24T13:45:57.274Z,15.31
2019-02-24T13:48:24.800Z,15.74
2019-02-24T13:50:51.766Z,15.31
2019-02-24T13:53:18.687Z,15.26
2019-02-24T13:55:45.662Z,15.28
2019-02-24T13:58:12.590Z,15.53
2019-02-24T14:00:39.545Z,15.54
2019-02-24T14:03:06.481Z,15.46
2019-02-24T14:05:33.437Z,16.39
2019-02-24T14:08:00.385Z,16.16
2019-02-24T14:10:27.388Z,16.00
2019-02-24T14:12:54.366Z,16.48
2019-02-24T14:15:21.388Z,16.20
2019-02-24T14:17:48.784Z,15.97
2019-02-24T14:20:15.731Z,15.89
2019-02-24T14:22:42.635Z,15.87
2019-02-24T14:25:09.643Z,16.45
2019-02-24T14:27:36.565Z,16.64
2019-02-24T14:30:04.752Z,16.26
2019-02-24T14:32:33.124Z,16.13
2019-02-24T14:35:00.462Z,16.40
2019-02-24T14:37:27.456Z,15.92
2019-02-24T14:39:54.452Z,15.73
2019-02-24T14:42:21.392Z,15.77
2019-02-24T14:44:48.411Z,15.90
2019-02-24T14:47:15.356Z,15.93
2019-02-24T14:49:42.254Z,15.98
2019-02-24T14:52:09.649Z,15.91
2019-02-24T14:54:36.596Z,15.71
2019-02-24T14:57:03.653Z,15.63
2019-02-24T14:59:30.560Z,15.54
2019-02-24T15:01:57.497Z,15.75
2019-02-24T15:04:24.604Z,15.59
2019-02-24T15:06:51.568Z,15.71
2019-02-24T15:09:18.462Z,15.85
2019-02-24T15:11:45.411Z,15.69
2019-02-24T15:14:12.312Z,15.64
2019-02-24T15:16:39.825Z,15.74
2019-02-24T15:19:06.739Z,15.64
2019-02-24T15:21:33.693Z,15.49
2019-02-24T15:26:41.101Z,15.24
2019-02-24T15:29:08.031Z,15.32
2019-02-24T15:31:34.980Z,15.53
2019-02-24T15:34:01.876Z,15.21
2019-02-24T15:36:28.836Z,15.01
2019-02-24T15:38:55.763Z,15.02
2019-02-24T15:41:29.686Z,14.88
2019-02-24T15:43:52.614Z,14.80
2019-02-24T15:46:20.110Z,14.84
2019-02-24T15:48:47.028Z,14.79
2019-02-24T15:51:13.996Z,14.82
2019-02-24T15:53:41.025Z,14.76
2019-02-24T15:56:07.910Z,14.70
2019-02-24T15:58:35.260Z,14.72
2019-02-24T16:01:02.444Z,14.97
2019-02-24T16:03:29.417Z,14.94
2019-02-24T16:05:56.320Z,14.94
2019-02-24T16:08:23.241Z,14.95
2019-02-24T16:10:53.050Z,14.81
2019-02-24T16:13:20.239Z,14.72
2019-02-24T16:15:47.207Z,14.77
2019-02-24T16:18:14.255Z,14.95
2019-02-24T16:20:41.319Z,14.97
2019-02-24T16:23:08.253Z,14.70
2019-02-24T16:25:35.287Z,14.29
2019-02-24T16:28:02.391Z,14.29
2019-02-24T16:30:29.398Z,14.28
2019-02-24T16:32:56.365Z,14.10
2019-02-24T16:35:23.439Z,13.89
2019-02-24T16:37:50.461Z,13.61
2019-02-24T16:40:17.703Z,13.34
2019-02-24T16:42:44.649Z,12.98
2019-02-24T16:45:11.848Z,12.70
2019-02-24T16:47:39.033Z,13.11
2019-02-24T16:50:07.163Z,12.83
2019-02-24T16:52:34.226Z,12.64
2019-02-24T16:55:01.203Z,12.55
2019-02-24T16:57:28.273Z,12.36
2019-02-24T16:59:55.222Z,12.23
2019-02-24T17:02:23.037Z,12.04
2019-02-24T17:04:50.249Z,11.85
2019-02-24T17:07:17.216Z,11.61
2019-02-24T17:09:44.169Z,11.44
2019-02-24T17:12:11.135Z,11.26
2019-02-24T17:14:38.106Z,10.97
2019-02-24T17:17:08.461Z,10.83
2019-02-24T17:19:38.430Z,10.85
2019-02-24T17:22:05.743Z,10.92
2019-02-24T17:24:32.762Z,10.79
2019-02-24T17:26:59.750Z,10.65
2019-02-24T17:29:26.787Z,10.56
2019-02-24T17:31:53.764Z,10.34
2019-02-24T17:34:20.724Z,10.05
2019-02-24T17:36:47.677Z,9.91
2019-02-24T17:39:14.811Z,9.85
2019-02-24T17:41:41.796Z,9.79
2019-02-24T17:44:08.790Z,9.55
2019-02-24T17:46:35.790Z,9.51
2019-02-24T17:49:02.807Z,9.38
2019-02-24T17:51:29.725Z,9.35
2019-02-24T17:53:56.716Z,9.26
2019-02-24T17:56:23.613Z,9.17
2019-02-24T17:58:59.803Z,9.04
2019-02-24T18:01:28.269Z,8.97
2019-02-24T18:04:00.206Z,8.80
2019-02-24T18:06:33.767Z,8.84
2019-02-24T18:09:06.437Z,8.84
2019-02-24T18:11:35.875Z,8.78
2019-02-24T18:14:06.987Z,8.54
2019-02-24T18:16:38.202Z,8.53
2019-02-24T18:19:11.773Z,8.46
2019-02-24T18:21:40.626Z,8.31
2019-02-24T18:24:07.677Z,8.09
2019-02-24T18:26:34.587Z,8.13
2019-02-24T18:29:01.549Z,8.11
2019-02-24T18:31:28.462Z,8.00
2019-02-24T18:33:55.385Z,7.74
2019-02-24T18:36:22.300Z,7.70
2019-02-24T18:38:49.319Z,7.69
2019-02-24T18:41:16.273Z,7.67
2019-02-24T18:43:45.576Z,7.70
2019-02-24T18:46:12.532Z,7.62
2019-02-24T18:48:58.762Z,7.62
2019-02-24T18:51:42.450Z,7.14
2019-02-24T18:54:09.872Z,6.79
2019-02-24T18:56:36.789Z,7.42
2019-02-24T18:59:03.863Z,7.34
2019-02-24T19:01:30.780Z,7.34
2019-02-24T19:03:58.684Z,7.39
2019-02-24T19:06:25.591Z,7.30
2019-02-24T19:09:03.691Z,7.28
2019-02-24T19:11:34.010Z,7.29
2019-02-24T19:17:31.875Z,7.41
2019-02-24T19:24:24.294Z,7.47
2019-02-24T19:26:54.519Z,7.45
2019-02-24T19:29:22.704Z,7.42
2019-02-24T19:31:54.755Z,7.38
2019-02-24T19:34:21.700Z,7.29
2019-02-24T19:36:48.649Z,7.29
2019-02-24T19:39:15.885Z,7.29
2019-02-24T19:41:42.830Z,7.26
2019-02-24T19:44:10.312Z,7.24
2019-02-24T19:46:37.368Z,7.19
2019-02-24T19:49:04.296Z,7.14
2019-02-24T19:51:31.190Z,7.08
2019-02-24T19:53:58.126Z,7.00
2019-02-24T19:56:25.070Z,7.05
2019-02-24T19:58:51.992Z,7.04
2019-02-24T20:01:19.463Z,6.73
2019-02-24T20:03:46.443Z,6.48
2019-02-24T20:06:13.415Z,6.30
2019-02-24T20:08:40.318Z,6.28
2019-02-24T20:11:07.242Z,6.28
2019-02-24T20:13:34.186Z,6.24
2019-02-24T20:16:01.137Z,6.25
2019-02-24T20:18:28.333Z,6.21
2019-02-24T20:20:55.297Z,6.15
2019-02-24T20:23:22.211Z,6.12
2019-02-24T20:25:49.276Z,6.05
2019-02-24T20:28:16.253Z,6.00
2019-02-24T20:30:43.190Z,5.78
2019-02-24T20:33:11.966Z,5.75
2019-02-24T20:35:38.928Z,5.71
2019-02-24T20:38:06.100Z,5.71
2019-02-24T20:40:33.082Z,5.73
2019-02-24T20:43:00.047Z,5.56
2019-02-24T20:45:29.054Z,5.17
2019-02-24T20:47:55.929Z,5.48
2019-02-24T20:50:22.946Z,5.47
2019-02-24T20:52:49.869Z,5.59
2019-02-24T20:55:16.816Z,5.56
2019-02-24T20:57:43.714Z,5.65
2019-02-24T21:00:19.709Z,5.47
2019-02-24T21:02:46.624Z,5.35
2019-02-24T21:05:13.546Z,5.41
2019-02-24T21:07:40.490Z,5.45
2019-02-24T21:10:08.227Z,5.32
2019-02-24T21:12:35.160Z,5.36
2019-02-24T21:15:03.719Z,5.30
2019-02-24T21:17:30.698Z,5.30
2019-02-24T21:19:57.704Z,5.34
2019-02-24T21:22:24.781Z,5.08
2019-02-24T21:24:51.749Z,4.98
2019-02-24T21:27:18.733Z,4.86
2019-02-24T21:29:45.675Z,4.88
2019-02-24T21:32:12.601Z,4.80
2019-02-24T21:34:39.513Z,4.67
2019-02-24T21:37:06.462Z,4.67
2019-02-24T21:39:33.378Z,4.72
2019-02-24T21:42:00.412Z,4.71
2019-02-24T21:44:27.316Z,4.74
2019-02-24T21:46:54.242Z,4.93
2019-02-24T21:49:21.354Z,5.04
2019-02-24T21:51:48.286Z,4.98
2019-02-24T21:54:15.175Z,4.83
2019-02-24T21:56:42.106Z,4.47
2019-02-24T21:59:09.004Z,4.48
2019-02-24T22:01:35.935Z,4.53
2019-02-24T22:04:02.825Z,4.55
2019-02-24T22:06:29.761Z,4.58
2019-02-24T22:08:56.651Z,4.31
2019-02-24T22:11:23.668Z,4.39
2019-02-24T22:13:50.558Z,4.38
2019-02-24T22:16:17.493Z,4.39
2019-02-24T22:18:44.418Z,4.50
2019-02-24T22:21:11.341Z,4.57
2019-02-24T22:23:38.292Z,4.16
2019-02-24T22:26:05.230Z,4.01
2019-02-24T22:28:32.182Z,4.01
2019-02-24T22:30:59.089Z,4.08
2019-02-24T22:33:26.003Z,4.06
2019-02-24T22:35:52.908Z,4.15
2019-02-24T22:38:19.832Z,4.19
2019-02-24T22:40:54.148Z,4.18
2019-02-24T22:43:15.604Z,4.21
2019-02-24T22:45:42.557Z,4.18
2019-02-24T22:48:09.484Z,4.18
2019-02-24T22:50:36.380Z,4.19
2019-02-24T22:53:03.323Z,4.15
2019-02-24T22:55:30.216Z,4.02
2019-02-24T22:57:57.176Z,4.01
2019-02-24T23:00:52.336Z,4.08
2019-02-24T23:03:19.265Z,4.11
2019-02-24T23:05:46.147Z,3.98
2019-02-24T23:08:13.098Z,3.81
2019-02-24T23:10:40.067Z,3.79
2019-02-24T23:13:07.166Z,3.69
2019-02-24T23:15:34.055Z,3.66
2019-02-24T23:18:01.059Z,3.75
2019-02-24T23:20:28.004Z,3.93
2019-02-24T23:22:54.924Z,3.76
2019-02-24T23:25:21.816Z,3.73
2019-02-24T23:27:48.772Z,3.66
2019-02-24T23:30:15.659Z,3.57
2019-02-24T23:32:42.603Z,3.62
2019-02-24T23:35:09.481Z,3.71
2019-02-24T23:37:36.458Z,3.75
2019-02-24T23:40:03.893Z,3.69
2019-02-24T23:42:30.834Z,3.65
2019-02-24T23:44:57.873Z,3.75
2019-02-24T23:47:24.900Z,4.04
2019-02-24T23:49:51.835Z,3.73
2019-02-24T23:52:18.823Z,3.70
2019-02-24T23:54:45.803Z,3.55
2019-02-24T23:57:12.680Z,3.39
2019-02-24T23:59:39.584Z,3.29
